Time;durP1;ratioP1;P1;durP2;ratioP2;P2;SDS_P1;SDS_P2;PMS_P1;PMS_P2;Temp;Humidity;BMP_temperature;BMP_pressure;BME280_temperature;BME280_humidity;BME280_pressure;Samples;Min_cycle;Max_cycle;Signal;HPM_P1;HPM_P2
2021/12/19 00:01:04;;;;;;;19.80;8.70;;;;;;;3.31;85.48;101149.72;4420133;32;20073;-70
2021/12/19 00:09:05;;;;;;;19.12;8.82;;;;;;;3.30;85.92;101132.34;4420161;32;20486;-70
2021/12/19 00:11:32;;;;;;;23.98;9.13;;;;;;;3.24;86.03;101131.25;4419843;32;20085;-70
2021/12/19 00:14:00;;;;;;;18.83;8.93;;;;;;;3.22;86.34;101117.34;4420164;32;20105;-70
2021/12/19 00:16:29;;;;;;;17.23;9.20;;;;;;;3.16;86.67;101117.12;4420964;32;20239;-70
2021/12/19 00:18:57;;;;;;;21.92;10.50;;;;;;;3.17;86.25;101124.97;4422285;32;20548;-70
2021/12/19 00:21:25;;;;;;;16.17;9.32;;;;;;;3.32;86.46;101119.34;4422333;32;20145;-70
2021/12/19 00:23:56;;;;;;;15.63;8.52;;;;;;;3.30;86.28;101116.69;4422215;32;20481;-70
2021/12/19 00:26:24;;;;;;;17.58;9.63;;;;;;;3.35;86.35;101107.28;4422146;32;20148;-70
2021/12/19 00:28:51;;;;;;;24.80;9.38;;;;;;;3.52;85.76;101104.28;4421997;32;20113;-70
2021/12/19 00:31:19;;;;;;;21.10;9.25;;;;;;;3.58;85.66;101109.69;4422121;32;20220;-70
2021/12/19 00:33:47;;;;;;;18.45;7.90;;;;;;;3.68;85.21;101108.22;4422075;31;20093;-70
2021/12/19 00:36:14;;;;;;;27.55;11.15;;;;;;;3.71;84.97;101109.19;4422021;32;20098;-70
2021/12/19 00:38:41;;;;;;;21.70;9.52;;;;;;;3.57;85.76;101119.22;4422025;32;20575;-70
2021/12/19 00:41:09;;;;;;;23.12;9.70;;;;;;;3.66;85.46;101120.31;4422213;31;20115;-70
2021/12/19 00:43:53;;;;;;;14.57;8.95;;;;;;;3.69;85.37;101115.19;4422001;32;20161;-70
2021/12/19 00:46:24;;;;;;;22.80;10.02;;;;;;;3.66;85.62;101112.50;4421921;32;20158;-70
2021/12/19 00:48:54;;;;;;;20.65;9.85;;;;;;;3.68;85.54;101116.94;4422091;32;20593;-70
2021/12/19 00:51:24;;;;;;;19.98;9.88;;;;;;;3.56;85.93;101116.56;4421963;32;20148;-71
2021/12/19 00:53:53;;;;;;;18.77;9.23;;;;;;;3.46;86.89;101123.22;4422126;32;20120;-70
2021/12/19 00:56:21;;;;;;;21.70;10.20;;;;;;;3.59;86.67;101119.25;4421944;32;20520;-70
2021/12/19 00:58:49;;;;;;;26.55;10.63;;;;;;;3.61;86.85;101117.59;4421983;32;20089;-70
2021/12/19 01:01:18;;;;;;;21.58;10.55;;;;;;;3.61;86.85;101109.78;4421740;32;20488;-70
2021/12/19 01:03:48;;;;;;;21.33;10.55;;;;;;;3.53;86.93;101111.25;4421967;32;20164;-70
2021/12/19 01:06:18;;;;;;;24.70;10.10;;;;;;;3.51;86.81;101102.53;4421891;32;20502;-70
2021/12/19 01:08:47;;;;;;;22.40;9.75;;;;;;;3.47;87.22;101100.69;4421830;31;20093;-71
2021/12/19 01:11:15;;;;;;;20.77;10.40;;;;;;;3.28;87.62;101097.53;4421678;32;20132;-70
2021/12/19 01:13:42;;;;;;;22.40;10.75;;;;;;;3.23;87.91;101087.84;4421714;32;20120;-70
2021/12/19 01:16:09;;;;;;;20.73;9.55;;;;;;;3.27;87.77;101087.97;4421740;32;20142;-71
2021/12/19 01:18:37;;;;;;;21.55;9.15;;;;;;;3.27;88.69;101074.06;4421704;32;20132;-70
2021/12/19 01:21:05;;;;;;;19.67;10.63;;;;;;;3.15;88.98;101079.81;4421653;32;20112;-71
2021/12/19 01:23:37;;;;;;;24.95;10.88;;;;;;;3.09;89.01;101064.88;4421695;32;20090;-70
2021/12/19 01:26:04;;;;;;;23.35;10.80;;;;;;;3.22;88.99;101054.84;4421555;32;20112;-70
2021/12/19 01:28:31;;;;;;;20.73;10.40;;;;;;;3.24;89.24;101051.41;4420416;32;20164;-70
2021/12/19 01:31:02;;;;;;;21.50;9.75;;;;;;;3.30;89.07;101041.16;4421450;32;20253;-70
2021/12/19 01:33:29;;;;;;;23.27;10.27;;;;;;;3.18;89.08;101045.12;4421681;32;20165;-70
2021/12/19 01:35:57;;;;;;;21.35;10.63;;;;;;;3.26;90.28;101028.03;4421406;32;20102;-70
2021/12/19 01:38:25;;;;;;;25.90;9.85;;;;;;;3.42;89.50;101031.94;4421794;32;20458;-70
2021/12/19 01:40:52;;;;;;;15.85;8.85;;;;;;;3.48;89.25;101029.50;4421478;32;20146;-70
2021/12/19 01:43:20;;;;;;;19.75;8.55;;;;;;;3.65;89.04;101017.81;4421496;32;20460;-70
2021/12/19 01:45:47;;;;;;;20.12;9.13;;;;;;;3.75;88.43;101012.00;4421389;32;20120;-70
2021/12/19 01:48:14;;;;;;;19.08;9.18;;;;;;;3.94;87.77;101013.34;4421491;32;20149;-70
2021/12/19 01:50:42;;;;;;;17.90;8.07;;;;;;;3.94;87.60;101015.94;4421160;32;20085;-71
2021/12/19 01:53:12;;;;;;;12.35;7.57;;;;;;;4.07;87.61;101017.13;4421409;32;20195;-70
2021/12/19 01:55:44;;;;;;;19.02;8.82;;;;;;;4.22;86.95;100994.03;4421330;32;20174;-70
2021/12/19 01:58:12;;;;;;;18.33;8.75;;;;;;;4.20;87.15;100995.69;4421412;32;20697;-70
2021/12/19 02:00:43;;;;;;;14.10;8.00;;;;;;;4.30;86.72;100983.75;4421346;32;20455;-70
2021/12/19 02:03:15;;;;;;;16.98;8.80;;;;;;;4.38;86.15;100982.22;4421394;32;20173;-70
2021/12/19 02:05:42;;;;;;;16.70;8.02;;;;;;;4.24;86.80;100974.09;4421221;32;20153;-70
2021/12/19 02:08:13;;;;;;;14.75;7.95;;;;;;;4.36;86.51;100973.47;4421270;32;20093;-70
2021/12/19 02:10:41;;;;;;;15.30;7.97;;;;;;;4.34;86.54;100962.09;4421244;32;20485;-70
2021/12/19 02:13:10;;;;;;;15.05;7.72;;;;;;;4.34;86.63;100961.22;4421466;32;20101;-70
2021/12/19 02:15:39;;;;;;;16.98;7.78;;;;;;;4.35;86.87;100937.81;4421006;32;20124;-70
2021/12/19 02:18:13;;;;;;;17.48;7.97;;;;;;;4.43;86.71;100938.84;4421310;32;20545;-70
2021/12/19 02:20:46;;;;;;;13.62;6.35;;;;;;;4.48;86.51;100923.28;4421304;32;20077;-70
2021/12/19 02:23:14;;;;;;;14.00;6.55;;;;;;;4.45;86.90;100915.37;4421251;32;20181;-70
2021/12/19 02:25:41;;;;;;;10.70;5.97;;;;;;;4.56;86.38;100908.69;4420997;32;20449;-70
2021/12/19 02:28:09;;;;;;;13.52;6.50;;;;;;;4.62;86.23;100890.53;4421113;32;20101;-70
2021/12/19 02:30:37;;;;;;;15.50;6.78;;;;;;;4.63;86.06;100889.69;4420934;32;20113;-70
2021/12/19 02:33:11;;;;;;;13.75;7.25;;;;;;;4.64;86.04;100880.13;4421083;32;20417;-70
2021/12/19 02:35:42;;;;;;;14.60;7.18;;;;;;;4.64;85.98;100891.44;4421025;32;20157;-70
2021/12/19 02:49:30;;;;;;;10.35;5.53;;;;;;;4.69;85.79;100858.47;4420924;32;20486;-70
2021/12/19 02:52:09;;;;;;;16.30;7.05;;;;;;;4.72;85.57;100850.69;4420792;32;20105;-70
2021/12/19 02:54:37;;;;;;;14.13;7.45;;;;;;;4.66;85.83;100879.28;4420875;32;20081;-70
2021/12/19 02:57:08;;;;;;;14.35;7.15;;;;;;;4.70;85.57;100846.28;4421017;32;20109;-70
2021/12/19 02:59:35;;;;;;;13.43;7.68;;;;;;;4.68;85.63;100861.06;4421034;32;20120;-70
2021/12/19 03:02:03;;;;;;;17.58;7.47;;;;;;;4.70;85.44;100847.19;4420820;32;20373;-70
2021/12/19 03:04:31;;;;;;;15.13;7.35;;;;;;;4.67;85.67;100859.31;4420645;32;20153;-70
2021/12/19 03:06:58;;;;;;;17.40;7.87;;;;;;;4.69;85.41;100849.75;4420563;32;20791;-70
2021/12/19 03:10:03;;;;;;;15.57;7.95;;;;;;;4.69;85.32;100834.09;4406433;32;20480;-70
2021/12/19 03:12:30;;;;;;;;;;;;;;;4.56;85.86;100843.44;4420963;32;20470;-70
2021/12/19 03:17:58;;;;;;;15.63;8.40;;;;;;;4.60;85.48;100832.22;4420746;32;20169;-70
2021/12/19 03:20:33;;;;;;;14.15;7.53;;;;;;;4.56;85.47;100812.12;4420871;32;20093;-70
2021/12/19 03:23:01;;;;;;;10.00;5.87;;;;;;;4.51;85.66;100835.50;4420578;32;20134;-70
2021/12/19 03:25:30;;;;;;;13.15;6.47;;;;;;;4.63;84.98;100821.84;4420690;32;20188;-70
2021/12/19 03:28:02;;;;;;;10.63;5.85;;;;;;;4.61;84.83;100826.13;4420353;32;20692;-70
2021/12/19 03:30:30;;;;;;;11.40;6.72;;;;;;;4.57;85.00;100834.75;4420574;32;20093;-70
2021/12/19 03:32:57;;;;;;;15.23;7.20;;;;;;;4.59;84.84;100833.03;4420421;32;20090;-70
2021/12/19 03:35:25;;;;;;;14.57;7.20;;;;;;;4.57;84.78;100821.69;4420482;32;20089;-70
2021/12/19 03:37:52;;;;;;;10.98;6.35;;;;;;;4.51;85.11;100824.19;4420407;32;20189;-70
2021/12/19 03:40:34;;;;;;;15.20;7.35;;;;;;;4.60;84.66;100813.06;4420349;32;20128;-70
2021/12/19 03:43:08;;;;;;;14.95;7.70;;;;;;;4.43;85.20;100803.16;4420494;32;20133;-70
2021/12/19 03:45:38;;;;;;;10.88;6.22;;;;;;;4.46;85.05;100816.28;4420329;32;20141;-70
2021/12/19 03:48:10;;;;;;;13.50;7.53;;;;;;;4.45;85.17;100818.84;4420344;32;20089;-70
2021/12/19 03:50:42;;;;;;;15.15;7.28;;;;;;;4.36;85.37;100821.28;4419417;32;20119;-70
2021/12/19 03:53:14;;;;;;;13.00;7.53;;;;;;;4.35;85.53;100833.44;4420204;32;20177;-70
2021/12/19 03:55:42;;;;;;;12.77;6.80;;;;;;;4.43;85.12;100829.25;4420186;32;20543;-70
2021/12/19 03:58:09;;;;;;;13.60;7.45;;;;;;;4.47;84.80;100835.41;4420055;32;20121;-70
2021/12/19 04:00:37;;;;;;;13.57;6.60;;;;;;;4.53;84.58;100827.72;4420202;32;20124;-70
2021/12/19 04:03:09;;;;;;;14.57;7.20;;;;;;;4.67;83.79;100835.81;4420059;32;20074;-70
2021/12/19 04:05:42;;;;;;;12.32;6.97;;;;;;;4.62;84.06;100840.94;4420302;32;20085;-70
2021/12/19 04:08:10;;;;;;;13.18;7.30;;;;;;;4.65;83.69;100848.81;4420049;32;20144;-70
2021/12/19 04:10:37;;;;;;;15.52;7.30;;;;;;;4.62;83.77;100845.28;4420007;32;20143;-70
2021/12/19 04:13:04;;;;;;;13.00;6.93;;;;;;;4.65;83.48;100850.56;4419982;32;20480;-70
2021/12/19 04:15:32;;;;;;;13.23;7.50;;;;;;;4.72;82.91;100840.25;4419903;32;20161;-70
2021/12/19 04:17:59;;;;;;;10.05;6.40;;;;;;;4.82;82.50;100850.87;4419887;32;20102;-70
2021/12/19 04:20:27;;;;;;;10.73;6.43;;;;;;;4.83;82.35;100844.81;4419859;32;20173;-70
2021/12/19 04:22:54;;;;;;;15.63;8.25;;;;;;;4.82;82.12;100850.87;4419745;32;20526;-70
2021/12/19 04:25:21;;;;;;;14.45;8.30;;;;;;;4.76;82.38;100849.03;4419765;32;20157;-70
2021/12/19 04:27:51;;;;;;;14.40;7.80;;;;;;;4.64;82.73;100867.94;4419945;32;20480;-70
2021/12/19 04:30:22;;;;;;;16.00;7.80;;;;;;;4.66;82.29;100858.41;4419688;32;20110;-70
2021/12/19 04:32:57;;;;;;;13.10;7.35;;;;;;;4.73;81.57;100854.19;4419862;32;20100;-70
2021/12/19 04:35:30;;;;;;;15.57;8.43;;;;;;;4.74;81.20;100841.19;4419732;32;20192;-70
2021/12/19 04:41:41;;;;;;;14.77;7.72;;;;;;;4.64;81.73;100846.19;4419556;32;20098;-70
2021/12/19 04:44:31;;;;;;;14.95;7.70;;;;;;;4.70;81.33;100848.91;4419460;32;20150;-70
2021/12/19 04:58:16;;;;;;;12.77;7.37;;;;;;;4.69;80.91;100819.31;4419565;32;20142;-70
2021/12/19 05:14:16;;;;;;;15.55;6.50;;;;;;;4.63;80.59;100794.81;4421989;32;20093;-70
2021/12/19 05:16:46;;;;;;;15.48;6.82;;;;;;;4.60;80.80;100792.19;4421800;32;20085;-70
2021/12/19 05:19:30;;;;;;;10.55;6.57;;;;;;;4.67;80.73;100787.09;4421651;32;20498;-70
2021/12/19 05:22:01;;;;;;;10.95;6.55;;;;;;;4.65;80.80;100778.34;4421762;32;20166;-71
2021/12/19 05:24:46;;;;;;;11.93;6.80;;;;;;;4.49;81.78;100779.81;4421865;32;20134;-70
2021/12/19 05:27:13;;;;;;;7.53;5.20;;;;;;;4.48;81.50;100788.47;4421679;32;20406;-70
2021/12/19 05:29:41;;;;;;;8.20;5.22;;;;;;;4.61;81.33;100789.59;4421519;32;20507;-70
2021/12/19 05:32:09;;;;;;;8.45;5.53;;;;;;;4.65;81.18;100780.97;4421590;32;20160;-70
2021/12/19 05:34:36;;;;;;;10.82;5.95;;;;;;;4.69;81.11;100779.28;4421691;32;20123;-70
2021/12/19 05:45:20;;;;;;;10.77;6.22;;;;;;;4.60;81.88;100782.63;4421398;32;20455;-70
2021/12/19 05:47:50;;;;;;;8.20;5.85;;;;;;;4.58;82.00;100779.09;4421759;32;20085;-71
2021/12/19 05:50:20;;;;;;;8.88;5.82;;;;;;;4.59;82.30;100779.97;4421354;32;20487;-70
2021/12/19 05:52:48;;;;;;;10.15;5.85;;;;;;;4.69;81.68;100761.00;4421431;32;20154;-70
2021/12/19 05:55:17;;;;;;;8.43;5.25;;;;;;;4.77;81.56;100755.09;4421469;32;20179;-70
2021/12/19 05:57:44;;;;;;;9.25;5.05;;;;;;;4.83;81.54;100754.31;4421389;32;20116;-70
2021/12/19 06:00:15;;;;;;;5.95;3.97;;;;;;;4.82;81.40;100736.91;4421367;31;20116;-70
2021/12/19 06:02:43;;;;;;;5.32;3.90;;;;;;;4.88;81.47;100738.75;4421669;32;20297;-70
2021/12/19 06:05:12;;;;;;;9.10;5.45;;;;;;;4.77;82.13;100726.38;4421338;32;20093;-70
2021/12/19 06:07:40;;;;;;;9.40;5.25;;;;;;;4.69;82.49;100716.62;4421383;32;20085;-70
2021/12/19 06:10:09;;;;;;;8.60;5.75;;;;;;;4.72;82.64;100735.84;4421223;32;20115;-70
2021/12/19 06:12:37;;;;;;;10.43;5.95;;;;;;;4.64;83.03;100720.91;4421086;32;20210;-70
2021/12/19 06:15:13;;;;;;;9.23;5.62;;;;;;;4.51;83.51;100727.63;4420614;32;20101;-70
2021/12/19 06:17:45;;;;;;;7.60;5.27;;;;;;;4.51;83.79;100722.41;4410495;32;348302;-70
2021/12/19 06:20:12;;;;;;;8.93;5.75;;;;;;;4.48;84.30;100719.75;4421253;32;20120;-70
2021/12/19 06:22:40;;;;;;;8.68;5.22;;;;;;;4.49;84.37;100716.31;4421091;32;20121;-70
2021/12/19 06:25:08;;;;;;;12.68;7.03;;;;;;;4.47;84.21;100705.81;4421441;32;20177;-71
2021/12/19 06:27:35;;;;;;;9.90;6.75;;;;;;;4.49;84.03;100711.09;4421091;32;20089;-70
2021/12/19 06:30:05;;;;;;;11.20;6.68;;;;;;;4.48;83.91;100712.78;4420872;31;20123;-70
2021/12/19 06:32:32;;;;;;;12.55;6.57;;;;;;;4.47;84.06;100703.22;4420818;32;20140;-71
2021/12/19 06:35:06;;;;;;;12.85;6.65;;;;;;;4.53;83.82;100705.06;4421113;32;20097;-71
2021/12/19 06:37:38;;;;;;;10.77;6.05;;;;;;;4.33;85.17;100702.09;4421111;32;20074;-70
2021/12/19 06:40:10;;;;;;;11.80;6.40;;;;;;;4.23;85.29;100703.62;4420933;32;20129;-70
2021/12/19 06:42:38;;;;;;;10.80;6.78;;;;;;;4.18;85.60;100701.81;4420905;32;20436;-71
2021/12/19 06:45:06;;;;;;;11.88;6.90;;;;;;;4.27;85.50;100697.63;4420768;32;20127;-70
2021/12/19 06:47:33;;;;;;;13.07;6.90;;;;;;;4.18;85.80;100701.81;4420953;32;20108;-70
2021/12/19 06:50:01;;;;;;;10.93;6.85;;;;;;;4.16;85.73;100701.75;4420746;32;20112;-70
2021/12/19 06:52:28;;;;;;;13.10;6.90;;;;;;;4.39;84.68;100697.00;4420648;32;20161;-70
2021/12/19 06:54:56;;;;;;;10.55;6.37;;;;;;;4.35;84.73;100694.28;4420776;32;20101;-70
2021/12/19 06:57:23;;;;;;;12.73;7.18;;;;;;;4.22;85.49;100695.81;4420810;32;20157;-70
2021/12/19 06:59:50;;;;;;;10.98;7.00;;;;;;;4.23;85.56;100697.56;4420744;32;20677;-70
2021/12/19 07:02:17;;;;;;;13.13;7.25;;;;;;;4.29;85.47;100701.16;4420690;32;20101;-70
2021/12/19 07:04:45;;;;;;;11.52;7.40;;;;;;;4.31;85.29;100683.81;4420578;32;20804;-70
2021/12/19 07:07:13;;;;;;;12.45;6.70;;;;;;;4.31;85.43;100680.28;4420700;32;20130;-70
2021/12/19 07:09:40;;;;;;;12.48;6.62;;;;;;;4.31;85.08;100678.59;4420601;32;20093;-70
2021/12/19 07:12:08;;;;;;;13.80;7.45;;;;;;;4.32;85.24;100675.13;4420718;32;20101;-70
2021/12/19 07:14:35;;;;;;;10.88;6.95;;;;;;;4.22;85.70;100674.94;4420639;32;20127;-70
2021/12/19 07:17:03;;;;;;;10.77;6.37;;;;;;;4.28;85.27;100675.94;4420604;32;20081;-70
2021/12/19 07:19:30;;;;;;;11.98;6.95;;;;;;;4.27;85.62;100668.94;4420416;32;20509;-70
2021/12/19 07:21:57;;;;;;;13.50;6.80;;;;;;;4.32;85.27;100667.31;4420450;32;20100;-70
2021/12/19 07:24:24;;;;;;;12.18;7.28;;;;;;;4.36;85.06;100662.16;4420725;32;20105;-70
2021/12/19 07:26:52;;;;;;;13.30;6.97;;;;;;;4.35;84.93;100670.81;4419462;32;20112;-70
2021/12/19 07:29:19;;;;;;;10.70;6.62;;;;;;;4.46;84.53;100674.50;4420299;32;20097;-70
2021/12/19 07:31:47;;;;;;;11.25;6.65;;;;;;;4.35;85.31;100666.50;4420379;32;20126;-70
2021/12/19 07:34:14;;;;;;;12.02;6.78;;;;;;;4.56;84.25;100665.97;4420467;32;20198;-70
2021/12/19 07:36:49;;;;;;;11.88;6.72;;;;;;;4.45;84.62;100664.91;4420482;32;20181;-70
2021/12/19 07:41:54;;;;;;;13.50;6.67;;;;;;;4.47;84.80;100664.06;4420354;32;20156;-70
2021/12/19 07:44:21;;;;;;;7.70;5.45;;;;;;;4.65;84.13;100657.41;4420216;32;20195;-70
2021/12/19 07:46:49;;;;;;;11.82;6.65;;;;;;;4.68;84.03;100670.53;4420278;32;20496;-70
2021/12/19 07:49:16;;;;;;;10.13;6.68;;;;;;;4.68;83.99;100670.53;4420190;32;20448;-70
2021/12/19 07:51:44;;;;;;;13.45;6.50;;;;;;;4.71;83.78;100681.00;4419984;32;20437;-70
2021/12/19 07:54:11;;;;;;;11.57;6.22;;;;;;;4.59;84.38;100673.84;4420188;32;20094;-70
2021/12/19 07:56:39;;;;;;;10.82;6.00;;;;;;;4.60;84.44;100667.78;4420203;31;20231;-70
2021/12/19 07:59:06;;;;;;;11.12;6.05;;;;;;;4.72;83.89;100665.38;4419986;32;20089;-70
2021/12/19 08:01:34;;;;;;;11.43;6.15;;;;;;;4.71;83.84;100661.00;4419694;32;20109;-70
2021/12/19 08:04:01;;;;;;;10.77;6.07;;;;;;;4.61;84.20;100651.25;4419887;32;20098;-70
2021/12/19 08:06:30;;;;;;;14.65;6.87;;;;;;;4.60;84.37;100652.12;4419918;32;20085;-70
2021/12/19 08:09:10;;;;;;;10.60;5.90;;;;;;;4.72;84.00;100641.88;4420039;32;20483;-70
2021/12/19 08:11:40;;;;;;;13.95;5.87;;;;;;;4.66;84.19;100638.28;4419570;32;20094;-70
2021/12/19 08:14:12;;;;;;;10.63;5.87;;;;;;;4.66;84.32;100628.72;4420387;32;20128;-70
2021/12/19 08:16:41;;;;;;;11.85;6.05;;;;;;;4.70;83.90;100625.31;4420314;32;20136;-70
2021/12/19 08:19:09;;;;;;;10.60;6.20;;;;;;;4.72;84.16;100610.56;4420158;32;20116;-70
2021/12/19 08:21:37;;;;;;;9.70;5.80;;;;;;;4.84;83.54;100614.19;4419966;32;20514;-70
2021/12/19 08:24:10;;;;;;;10.55;5.43;;;;;;;4.79;83.55;100611.53;4420073;32;20093;-70
2021/12/19 08:26:39;;;;;;;9.63;5.78;;;;;;;4.82;83.86;100623.75;4420228;32;20081;-70
2021/12/19 08:29:13;;;;;;;10.65;5.72;;;;;;;4.72;84.21;100609.69;4419818;32;20119;-70
2021/12/19 08:31:41;;;;;;;10.15;5.32;;;;;;;4.78;84.08;100599.34;4419851;32;20081;-70
2021/12/19 08:34:08;;;;;;;9.98;5.95;;;;;;;4.82;84.27;100603.75;4419801;32;20417;-71
2021/12/19 08:36:35;;;;;;;8.10;4.55;;;;;;;4.88;83.85;100600.34;4419788;32;20427;-70
2021/12/19 08:39:04;;;;;;;11.77;5.95;;;;;;;4.90;83.98;100599.50;4422107;32;20141;-70
2021/12/19 08:41:36;;;;;;;9.35;5.82;;;;;;;5.11;83.05;100593.72;4422161;32;20090;-71
2021/12/19 08:44:04;;;;;;;9.27;5.55;;;;;;;5.03;83.39;100590.13;4421772;32;20102;-70
2021/12/19 08:46:35;;;;;;;9.00;5.32;;;;;;;5.12;83.13;100577.16;4421817;32;20077;-70
2021/12/19 08:49:05;;;;;;;11.48;5.37;;;;;;;5.27;82.33;100585.22;4422239;32;20141;-71
2021/12/19 08:51:34;;;;;;;9.25;5.18;;;;;;;5.31;82.20;100585.28;4421831;32;20097;-70
2021/12/19 08:54:04;;;;;;;11.20;5.50;;;;;;;5.51;81.55;100589.87;4422000;32;20673;-71
2021/12/19 08:56:32;;;;;;;12.63;6.80;;;;;;;5.61;81.33;100584.75;4422030;32;20133;-70
2021/12/19 08:59:01;;;;;;;14.63;5.87;;;;;;;5.74;80.38;100581.41;4422079;32;20085;-70
2021/12/19 09:01:28;;;;;;;13.15;7.10;;;;;;;5.82;80.01;100573.66;4421658;32;20121;-70
2021/12/19 09:03:56;;;;;;;8.90;5.22;;;;;;;5.88;79.82;100564.12;4421869;32;20169;-70
2021/12/19 09:06:24;;;;;;;10.65;5.47;;;;;;;5.87;79.64;100561.50;4421997;32;20089;-70
2021/12/19 09:08:51;;;;;;;21.37;5.57;;;;;;;5.97;79.73;100560.75;4421572;32;20084;-71
2021/12/19 09:11:18;;;;;;;12.50;5.03;;;;;;;5.92;79.41;100562.44;4421790;32;20167;-71
2021/12/19 09:13:45;;;;;;;12.02;5.97;;;;;;;6.03;79.12;100573.91;4421611;32;20097;-70
2021/12/19 09:16:13;;;;;;;9.30;5.30;;;;;;;6.19;78.81;100560.09;4421701;32;20073;-70
2021/12/19 09:18:40;;;;;;;8.63;4.93;;;;;;;6.25;77.72;100569.72;4421609;32;20089;-70
2021/12/19 09:21:07;;;;;;;9.65;5.05;;;;;;;6.30;77.95;100556.72;4421889;32;20174;-71
2021/12/19 09:23:34;;;;;;;7.87;5.03;;;;;;;6.48;76.35;100554.22;4421723;32;20156;-70
2021/12/19 09:26:05;;;;;;;8.13;5.22;;;;;;;6.58;76.35;100548.19;4421474;32;20085;-70
2021/12/19 09:28:33;;;;;;;11.38;5.30;;;;;;;6.70;75.97;100542.16;4421559;32;20085;-70
2021/12/19 09:31:01;;;;;;;12.27;5.72;;;;;;;6.72;76.13;100534.31;4421768;32;20441;-71
2021/12/19 09:33:29;;;;;;;9.10;5.32;;;;;;;7.04;74.70;100521.41;4421638;31;20116;-70
2021/12/19 09:35:59;;;;;;;10.70;6.43;;;;;;;7.40;73.18;100520.66;4421697;32;20097;-71
2021/12/19 09:38:27;;;;;;;8.90;6.20;;;;;;;7.50;72.36;100505.84;4421793;32;20150;-71
2021/12/19 09:41:12;;;;;;;21.92;9.05;;;;;;;8.04;71.48;100512.03;4421654;32;20502;-71
2021/12/19 09:43:44;;;;;;;7.25;4.82;;;;;;;8.41;68.47;100491.03;4421515;32;20120;-71
2021/12/19 09:46:15;;;;;;;9.13;5.50;;;;;;;8.40;68.51;100490.16;4421637;32;20148;-71
2021/12/19 09:48:45;;;;;;;14.02;5.85;;;;;;;8.05;69.68;100490.16;4420734;32;20077;-71
2021/12/19 09:51:15;;;;;;;8.88;4.80;;;;;;;8.47;67.89;100498.91;4421308;32;20097;-71
2021/12/19 09:53:43;;;;;;;30.42;10.80;;;;;;;8.28;67.98;100487.53;4421550;32;20582;-71
2021/12/19 09:56:12;;;;;;;19.17;8.07;;;;;;;8.20;68.61;100478.78;4421343;32;20094;-70
2021/12/19 09:58:40;;;;;;;8.77;5.20;;;;;;;8.15;68.79;100470.91;4421363;32;20101;-71
2021/12/19 10:01:12;;;;;;;7.15;4.45;;;;;;;8.18;67.49;100449.06;4421321;32;20753;-70
2021/12/19 10:03:40;;;;;;;4.55;3.97;;;;;;;8.32;67.41;100452.53;4421113;32;20149;-71
2021/12/19 10:06:18;;;;;;;12.43;5.30;;;;;;;8.26;67.66;100453.41;4421176;32;20550;-70
2021/12/19 10:08:49;;;;;;;7.68;4.50;;;;;;;8.53;66.68;100451.66;4421310;32;20088;-71
2021/12/19 10:11:31;;;;;;;8.10;4.70;;;;;;;8.32;66.96;100445.53;4421206;32;20479;-71
2021/12/19 10:13:59;;;;;;;15.95;4.95;;;;;;;8.15;68.51;100445.53;4421150;32;20102;-71
2021/12/19 10:16:29;;;;;;;5.85;3.67;;;;;;;8.14;67.00;100432.44;4421106;32;20085;-71
2021/12/19 10:19:00;;;;;;;5.80;3.67;;;;;;;7.98;67.21;100438.56;4421213;32;20093;-70
2021/12/19 10:21:35;;;;;;;6.37;3.87;;;;;;;7.70;67.97;100438.53;4421251;32;20715;-71
2021/12/19 10:24:03;;;;;;;6.53;3.90;;;;;;;7.14;70.49;100434.97;4421176;32;20498;-71
2021/12/19 10:26:43;;;;;;;7.53;4.43;;;;;;;7.31;70.63;100441.97;4421092;32;20503;-71
2021/12/19 10:29:10;;;;;;;12.75;4.87;;;;;;;7.47;69.30;100433.28;4420951;32;20534;-70
2021/12/19 10:31:40;;;;;;;11.68;5.22;;;;;;;7.46;69.82;100421.06;4420887;32;20346;-71
2021/12/19 10:34:37;;;;;;;6.68;4.37;;;;;;;7.70;70.09;100437.69;4421080;32;20109;-71
2021/12/19 10:37:34;;;;;;;8.10;4.97;;;;;;;7.53;69.63;100425.44;4410217;32;20086;-71
2021/12/19 10:40:05;;;;;;;10.55;4.28;;;;;;;7.62;68.88;100416.69;4421024;32;20428;-71
2021/12/19 10:42:55;;;;;;;6.25;4.25;;;;;;;7.58;69.02;100418.44;4420762;32;20120;-71
2021/12/19 10:45:30;;;;;;;8.00;4.78;;;;;;;7.34;70.51;100394.81;4420919;32;20520;-71
2021/12/19 10:48:11;;;;;;;6.78;3.67;;;;;;;7.43;69.88;100400.09;4421045;32;20122;-71
2021/12/19 10:50:59;;;;;;;5.82;3.83;;;;;;;7.40;68.86;100392.22;4420872;32;20094;-71
2021/12/19 10:53:32;;;;;;;8.35;5.15;;;;;;;7.18;70.31;100391.31;4420760;32;20149;-71
2021/12/19 10:56:00;;;;;;;9.90;4.82;;;;;;;7.26;69.98;100381.72;4420895;32;20124;-71
2021/12/19 10:58:36;;;;;;;8.25;4.60;;;;;;;7.18;70.38;100392.19;4420800;32;20156;-71
2021/12/19 11:01:20;;;;;;;7.15;4.47;;;;;;;6.90;70.89;100383.37;4420680;32;20081;-70
2021/12/19 11:03:58;;;;;;;5.78;4.05;;;;;;;6.69;71.44;100389.41;4421033;32;20509;-71
2021/12/19 11:06:34;;;;;;;8.55;3.92;;;;;;;6.40;72.74;100391.91;4420968;32;20105;-71
2021/12/19 11:09:22;;;;;;;6.43;4.03;;;;;;;6.37;72.98;100394.50;4420721;32;20089;-71
2021/12/19 11:11:59;;;;;;;5.40;3.83;;;;;;;6.35;72.81;100392.72;4420644;32;20117;-71
2021/12/19 11:14:28;;;;;;;7.43;4.22;;;;;;;6.29;72.94;100395.31;4420723;32;20121;-71
2021/12/19 11:17:26;;;;;;;9.18;4.75;;;;;;;6.17;73.72;100389.16;4420610;32;20112;-71
2021/12/19 11:19:57;;;;;;;7.45;4.50;;;;;;;6.22;74.11;100391.81;4407596;32;20502;-70
2021/12/19 11:22:27;;;;;;;6.75;4.40;;;;;;;6.35;72.65;100393.59;4420823;32;20093;-70
2021/12/19 11:25:01;;;;;;;9.07;4.25;;;;;;;6.47;72.48;100396.31;4420521;32;20145;-70
2021/12/19 11:27:29;;;;;;;6.00;4.47;;;;;;;6.45;72.45;100391.91;4420543;32;20117;-71
2021/12/19 11:29:58;;;;;;;6.35;4.25;;;;;;;6.43;73.20;100401.50;4420539;31;20206;-70
2021/12/19 11:32:34;;;;;;;9.30;4.78;;;;;;;6.45;72.29;100403.25;4420371;32;20449;-70
2021/12/19 11:35:14;;;;;;;11.17;4.90;;;;;;;6.36;72.83;100404.94;4420629;32;20434;-70
2021/12/19 11:38:04;;;;;;;7.60;5.05;;;;;;;6.38;73.14;100403.22;4420628;32;20169;-71
2021/12/19 11:40:35;;;;;;;9.75;4.57;;;;;;;6.35;73.72;100404.06;4420567;32;20153;-71
2021/12/19 11:43:07;;;;;;;9.70;5.03;;;;;;;6.22;73.43;100397.03;4420444;32;20080;-70
2021/12/19 11:45:41;;;;;;;9.00;5.37;;;;;;;6.11;73.87;100401.31;4420475;32;20140;-71
2021/12/19 11:48:16;;;;;;;11.00;6.25;;;;;;;6.04;74.36;100394.28;4420354;32;20097;-70
2021/12/19 11:50:54;;;;;;;8.95;4.95;;;;;;;5.84;75.01;100407.22;4420609;32;20127;-70
2021/12/19 11:53:35;;;;;;;6.18;4.85;;;;;;;5.79;75.09;100399.31;4420190;32;20093;-70
2021/12/19 11:56:04;;;;;;;9.38;4.87;;;;;;;5.67;75.89;100391.38;4420182;32;20160;-70
2021/12/19 11:58:49;;;;;;;13.93;7.25;;;;;;;5.59;76.31;100390.44;4420177;32;20148;-70
2021/12/19 12:01:28;;;;;;;9.43;5.82;;;;;;;5.57;76.31;100379.09;4420072;32;20527;-70
2021/12/19 12:03:57;;;;;;;8.93;4.57;;;;;;;5.70;75.61;100381.81;4420102;32;20126;-70
2021/12/19 12:06:29;;;;;;;13.40;5.65;;;;;;;5.71;75.06;100367.88;4420103;32;20157;-70
2021/12/19 12:09:03;;;;;;;9.48;4.50;;;;;;;5.67;75.24;100366.09;4420268;32;20089;-70
2021/12/19 12:11:31;;;;;;;7.97;5.15;;;;;;;5.62;75.77;100366.91;4420276;32;20579;-70
2021/12/19 12:14:23;;;;;;;7.82;4.80;;;;;;;5.62;75.86;100374.75;4422189;32;20098;-70
2021/12/19 12:16:53;;;;;;;7.75;4.53;;;;;;;5.69;75.37;100376.59;4413193;32;20521;-70
2021/12/19 12:19:42;;;;;;;7.62;4.60;;;;;;;5.73;75.35;100376.63;4422351;32;20511;-70
2021/12/19 12:22:22;;;;;;;6.90;4.37;;;;;;;5.64;75.40;100379.16;4422271;32;20522;-70
2021/12/19 12:25:11;;;;;;;7.60;4.43;;;;;;;5.60;75.12;100376.50;4422423;32;20077;-70
2021/12/19 12:28:08;;;;;;;9.95;4.43;;;;;;;5.49;75.91;100371.19;4422024;32;20119;-70
2021/12/19 12:30:38;;;;;;;12.90;4.75;;;;;;;5.62;75.43;100372.16;4421599;32;20101;-70
2021/12/19 12:33:09;;;;;;;7.40;4.65;;;;;;;5.58;75.40;100370.38;4422178;32;20086;-71
2021/12/19 12:35:39;;;;;;;8.02;4.62;;;;;;;5.42;75.73;100370.25;4407999;32;20085;-70
2021/12/19 12:38:09;;;;;;;9.63;4.78;;;;;;;5.44;75.77;100360.72;4422220;32;20466;-70
2021/12/19 12:43:23;;;;;;;11.27;4.72;;;;;;;5.53;75.59;100364.25;4422280;32;20093;-70
2021/12/19 12:46:16;;;;;;;7.53;4.65;;;;;;;5.51;75.79;100344.22;4422179;32;20085;-70